KADW/ADW METAR and TAF weather

Enter ICAO airport designator
Station Type Date Time Source
KADW METAR 2019/12/08 13:56 UTC NOAA

KADW 081356Z AUTO 00000KT 10SM CLR 01/M02 A3051 RMK AO2 SLP342 T00061025


Station Type Date Time Source
KADW Decoded METAR 2019/12/08 13:56 UTC NOAA

Camp Springs / Andrews Air Force Base, MD, United States (KADW) 38-49N 076-51W 88M
Dec 08, 2019 - 08:56 AM EST / 2019.12.08 1356 UTC
Wind: Calm:0
Visibility: 10 mile(s):0
Sky conditions: clear
Temperature: 33.1 F (0.6 C)
Dew Point: 27.5 F (-2.5 C)
Relative Humidity: 79%
Pressure (altimeter): 30.51 in. Hg (1033 hPa)
ob: KADW 081356Z AUTO 00000KT 10SM CLR 01/M02 A3051 RMK AO2 SLP342 T00061025
cycle: 14

Station Type Date Time Source
KADW TAF 2019/12/08 09:12 UTC NOAA

TAF KADW 080900Z 0809/0915 16009KT 9999 SKC QNH3047INS
BECMG 0823/0824 20008KT 9999 SCT010 BKN020 QNH3034INS
BECMG 0909/0910 20008KT 4800 -SHRA FEW002 BKN009 OVC020 QNH3017INS TX06/0819Z TNM02/0811Z

Example: see airport list